Time;durP1;ratioP1;P1;durP2;ratioP2;P2;SDS_P1;SDS_P2;PMS_P1;PMS_P2;Temp;Humidity;BMP_temperature;BMP_pressure;BME280_temperature;BME280_humidity;BME280_pressure;Samples;Min_cycle;Max_cycle;Signal;HPM_P1;HPM_P2
2022/06/27 00:01:50;;;;;;;2.78;0.93;;;;;;;25.10;37.45;101371.84;6246137;23;20011;-47
2022/06/27 00:04:18;;;;;;;1.98;0.73;;;;;;;25.20;37.03;101384.25;6248303;23;20026;-47
2022/06/27 00:06:45;;;;;;;2.05;0.80;;;;;;;25.13;37.23;101378.03;6247714;23;20032;-44
2022/06/27 00:09:14;;;;;;;3.05;0.80;;;;;;;25.09;37.45;101368.34;6247496;23;20007;-53
2022/06/27 00:11:42;;;;;;;1.90;0.52;;;;;;;25.08;37.26;101363.06;6247961;23;20005;-44
2022/06/27 00:14:11;;;;;;;3.40;0.82;;;;;;;25.10;37.50;101366.63;6247857;23;20504;-48
2022/06/27 00:16:40;;;;;;;2.97;0.70;;;;;;;25.13;37.15;101367.53;6247873;23;20000;-45
2022/06/27 00:19:08;;;;;;;1.77;0.63;;;;;;;25.02;37.15;101346.38;6247368;23;20000;-42
2022/06/27 00:21:37;;;;;;;3.40;0.73;;;;;;;25.10;37.24;101362.22;6247575;23;20007;-43
2022/06/27 00:24:04;;;;;;;2.67;0.82;;;;;;;25.13;37.17;101364.03;6246288;23;20000;-43
2022/06/27 00:26:33;;;;;;;1.35;0.50;;;;;;;25.16;37.06;101369.31;6247789;23;20432;-43
2022/06/27 00:29:02;;;;;;;2.22;0.60;;;;;;;25.15;37.02;101359.69;6247358;23;20000;-42
2022/06/27 00:31:31;;;;;;;2.13;0.70;;;;;;;25.12;37.13;101364.91;6220935;23;20090;-43
2022/06/27 00:33:59;;;;;;;3.00;0.70;;;;;;;25.13;37.00;101362.28;6220981;23;20008;-49
2022/06/27 00:36:28;;;;;;;2.90;0.80;;;;;;;25.13;37.24;101370.16;6247857;23;20011;-44
2022/06/27 00:38:56;;;;;;;1.73;0.68;;;;;;;25.08;37.25;101368.31;6247750;23;20071;-47
2022/06/27 00:41:25;;;;;;;3.40;0.93;;;;;;;25.11;37.00;101369.25;6247568;23;20015;-42
2022/06/27 00:43:54;;;;;;;2.63;0.70;;;;;;;25.06;37.05;101370.94;6221010;23;20015;-43
2022/06/27 00:46:23;;;;;;;4.47;0.95;;;;;;;25.09;37.14;101380.59;6247732;23;20000;-45
2022/06/27 00:48:51;;;;;;;2.47;0.70;;;;;;;25.09;36.99;101376.22;6221495;23;20431;-42
2022/06/27 00:51:20;;;;;;;2.60;0.73;;;;;;;25.01;37.18;101367.34;6247018;23;20011;-49
2022/06/27 00:53:48;;;;;;;4.50;0.80;;;;;;;25.03;37.19;101379.63;6221109;23;20019;-42
2022/06/27 00:56:17;;;;;;;2.47;0.47;;;;;;;25.02;37.33;101379.63;6220675;23;20164;-51
2022/06/27 00:58:46;;;;;;;2.85;0.77;;;;;;;25.04;37.26;101380.53;6245594;23;20499;-43
2022/06/27 01:01:14;;;;;;;3.65;0.80;;;;;;;25.04;37.25;101383.16;6245672;23;20023;-51
2022/06/27 01:03:42;;;;;;;4.45;0.85;;;;;;;25.09;37.33;101391.09;6247306;23;20428;-43
2022/06/27 01:06:11;;;;;;;3.05;0.85;;;;;;;25.07;37.02;101379.69;6247265;23;20015;-43
2022/06/27 01:08:40;;;;;;;2.33;0.70;;;;;;;25.07;36.99;101382.31;6220152;23;20075;-43
2022/06/27 01:11:07;;;;;;;2.58;0.50;;;;;;;25.04;36.85;101375.28;6245738;23;20010;-42
2022/06/27 01:13:36;;;;;;;1.92;0.60;;;;;;;25.10;36.91;101382.38;6246678;23;20000;-43
2022/06/27 01:16:05;;;;;;;2.13;0.55;;;;;;;25.02;37.32;101375.25;6247039;23;20304;-43
2022/06/27 01:18:33;;;;;;;3.65;0.88;;;;;;;24.73;37.29;101338.06;6245427;23;20008;-43
2022/06/27 01:21:01;;;;;;;0.98;0.35;;;;;;;25.04;37.08;101377.91;6245461;23;20084;-50
2022/06/27 01:23:30;;;;;;;1.90;0.65;;;;;;;25.02;37.06;101372.63;6220257;23;20004;-43
2022/06/27 01:25:58;;;;;;;1.98;0.63;;;;;;;25.08;36.71;101376.19;6246277;23;20462;-43
2022/06/27 01:28:27;;;;;;;1.15;0.50;;;;;;;25.09;37.00;101383.22;6247172;23;20054;-45
2022/06/27 01:30:55;;;;;;;4.18;0.68;;;;;;;25.08;36.82;101378.81;6247227;23;20495;-42
2022/06/27 01:33:23;;;;;;;2.17;0.57;;;;;;;25.09;36.86;101377.97;6246994;23;20000;-48
2022/06/27 01:36:41;;;;;;;1.83;0.45;;;;;;;25.09;36.66;101380.59;6247124;23;20028;-43
2022/06/27 01:38:37;;;;;;;1.58;0.75;;;;;;;24.98;36.81;101375.19;6246651;23;20063;-42
2022/06/27 01:41:06;;;;;;;1.20;0.65;;;;;;;25.02;36.70;101388.38;6220680;23;20099;-43
2022/06/27 01:43:35;;;;;;;2.40;0.60;;;;;;;25.03;36.75;101382.25;6244997;23;20015;-47
2022/06/27 01:46:03;;;;;;;1.65;0.55;;;;;;;25.01;36.62;101391.84;6246533;23;20011;-51
2022/06/27 01:48:31;;;;;;;2.05;0.70;;;;;;;24.94;37.02;101390.00;6246300;23;20062;-51
2022/06/27 01:51:00;;;;;;;2.55;0.63;;;;;;;25.02;36.89;101392.75;6220112;23;20000;-43
2022/06/27 01:53:30;;;;;;;2.03;0.57;;;;;;;25.04;36.38;101393.66;6195077;23;20317;-42
2022/06/27 01:55:59;;;;;;;2.58;0.80;;;;;;;25.00;36.49;101389.22;6246659;23;20016;-49
2022/06/27 01:58:28;;;;;;;1.05;0.40;;;;;;;25.04;36.72;101391.03;6246134;23;20083;-44
2022/06/27 02:00:57;;;;;;;1.08;0.52;;;;;;;24.96;36.59;101392.63;6245094;23;20008;-44
2022/06/27 02:03:26;;;;;;;2.13;0.60;;;;;;;24.95;36.90;101391.78;6245206;23;20091;-43
2022/06/27 02:05:55;;;;;;;1.48;0.50;;;;;;;24.98;36.54;101389.19;6219746;23;20358;-44
2022/06/27 02:08:24;;;;;;;3.67;0.63;;;;;;;24.92;36.77;101390.81;6246369;23;20004;-44
2022/06/27 02:10:52;;;;;;;1.15;0.45;;;;;;;24.83;36.79;101379.34;6220085;23;20085;-43
2022/06/27 02:13:20;;;;;;;1.63;0.40;;;;;;;24.82;36.63;101381.94;6246553;23;20348;-47
2022/06/27 02:16:08;;;;;;;1.48;0.50;;;;;;;24.89;36.95;101391.66;6219523;23;20006;-46
2022/06/27 02:18:37;;;;;;;1.10;0.50;;;;;;;25.01;36.68;101383.09;6246578;23;20027;-43
2022/06/27 02:21:06;;;;;;;1.67;0.40;;;;;;;24.92;36.50;101375.97;6246072;23;20050;-52
2022/06/27 02:23:34;;;;;;;0.90;0.50;;;;;;;25.01;36.37;101385.72;6246197;23;20389;-50
2022/06/27 02:26:03;;;;;;;1.15;0.50;;;;;;;24.95;36.57;101383.00;6246096;23;20004;-48
2022/06/27 02:28:31;;;;;;;0.88;0.30;;;;;;;24.76;36.69;101350.34;6246652;23;20012;-44
2022/06/27 02:31:00;;;;;;;0.60;0.30;;;;;;;24.88;36.38;101366.28;6246590;23;20065;-42
2022/06/27 02:33:42;;;;;;;3.97;0.60;;;;;;;24.84;36.66;101365.34;6244088;23;20056;-48
2022/06/27 02:36:14;;;;;;;2.53;0.77;;;;;;;24.71;36.59;101353.78;6219385;23;20008;-43
2022/06/27 02:38:44;;;;;;;2.03;0.45;;;;;;;24.96;36.53;101379.50;6246006;23;20004;-42
2022/06/27 02:41:17;;;;;;;1.38;0.38;;;;;;;24.87;36.57;101360.16;6246658;23;20382;-44
2022/06/27 02:43:49;;;;;;;2.88;0.50;;;;;;;24.87;36.33;101382.88;6246363;23;20008;-50
2022/06/27 02:46:17;;;;;;;1.27;0.63;;;;;;;24.85;36.38;101374.09;6245987;23;20443;-48
2022/06/27 02:48:49;;;;;;;1.38;0.50;;;;;;;24.83;36.66;101370.56;6246023;23;20022;-50
2022/06/27 02:51:22;;;;;;;2.70;0.70;;;;;;;24.85;36.27;101377.63;6219428;23;20004;-48
2022/06/27 02:54:11;;;;;;;1.40;0.50;;;;;;;24.85;36.21;101379.34;6219805;23;20086;-45
2022/06/27 02:56:44;;;;;;;1.50;0.50;;;;;;;24.80;36.27;101374.03;6246175;23;20066;-44
2022/06/27 02:59:16;;;;;;;1.13;0.35;;;;;;;24.71;36.59;101384.38;6219493;23;20011;-51
2022/06/27 03:01:45;;;;;;;1.83;0.60;;;;;;;24.71;36.76;101373.91;6219866;23;20007;-45
2022/06/27 03:04:13;;;;;;;2.03;0.52;;;;;;;24.77;36.35;101388.84;6244524;23;20004;-44
2022/06/27 03:06:44;;;;;;;2.97;0.45;;;;;;;24.78;36.40;101388.00;6219683;23;20004;-43
2022/06/27 03:09:12;;;;;;;1.38;0.52;;;;;;;24.84;36.35;101393.31;6246235;23;20083;-47
2022/06/27 03:11:41;;;;;;;3.40;0.82;;;;;;;24.90;36.35;101393.44;6245666;23;20467;-44
2022/06/27 03:14:10;;;;;;;2.00;0.60;;;;;;;24.90;36.36;101392.56;6245463;23;20000;-46
2022/06/27 03:16:38;;;;;;;2.55;0.50;;;;;;;24.79;36.03;101379.25;6246090;23;20003;-52
2022/06/27 03:19:07;;;;;;;0.82;0.40;;;;;;;24.85;36.12;101398.63;6245688;23;20008;-43
2022/06/27 03:21:35;;;;;;;1.45;0.60;;;;;;;24.81;36.16;101388.91;6246109;23;20362;-43
2022/06/27 03:24:03;;;;;;;1.85;0.50;;;;;;;24.82;35.90;101395.94;6245867;23;20508;-42
2022/06/27 03:26:32;;;;;;;0.47;0.20;;;;;;;24.83;36.08;101397.69;6245588;23;20340;-46
2022/06/27 03:29:02;;;;;;;1.45;0.40;;;;;;;24.68;36.21;101394.78;6246014;23;20004;-42
2022/06/27 03:31:30;;;;;;;0.45;0.30;;;;;;;24.75;36.05;101404.53;6246007;23;20008;-46
2022/06/27 03:33:59;;;;;;;2.22;0.82;;;;;;;24.77;36.35;101401.97;6245561;23;20019;-49
2022/06/27 03:36:27;;;;;;;1.88;0.43;;;;;;;24.75;36.05;101401.06;6246181;23;20320;-43
2022/06/27 03:38:56;;;;;;;0.85;0.47;;;;;;;24.72;36.00;101401.91;6245554;23;20004;-50
2022/06/27 03:41:25;;;;;;;2.10;0.40;;;;;;;24.79;36.02;101411.63;6245780;23;20446;-44
2022/06/27 03:43:53;;;;;;;0.80;0.30;;;;;;;24.79;36.17;101424.75;6245619;23;20008;-54
2022/06/27 03:46:22;;;;;;;1.30;0.57;;;;;;;24.75;35.82;101422.03;6245607;23;20004;-44
2022/06/27 03:51:37;;;;;;;1.73;0.50;;;;;;;24.71;36.07;101422.00;6230324;23;20010;-48
2022/06/27 03:54:06;;;;;;;2.45;0.60;;;;;;;24.77;35.84;101426.44;6245376;23;20004;-45
2022/06/27 03:56:35;;;;;;;2.13;0.50;;;;;;;24.79;35.62;101424.75;6245257;23;20020;-53
2022/06/27 03:59:03;;;;;;;4.88;0.65;;;;;;;24.68;36.08;101411.41;6245509;23;20004;-46
2022/06/27 04:01:32;;;;;;;2.22;0.65;;;;;;;24.66;35.75;101415.72;6245560;23;20000;-44
2022/06/27 04:04:00;;;;;;;0.57;0.30;;;;;;;24.66;36.09;101423.59;6245571;23;20435;-47
2022/06/27 04:06:29;;;;;;;0.82;0.30;;;;;;;24.64;36.25;101422.72;6245435;23;20023;-44
2022/06/27 04:08:57;;;;;;;1.23;0.40;;;;;;;24.68;35.93;101435.00;6218962;23;20462;-53
2022/06/27 04:11:25;;;;;;;2.00;0.60;;;;;;;24.68;35.85;101428.91;6245342;23;20083;-50
2022/06/27 04:13:53;;;;;;;1.25;0.40;;;;;;;24.58;36.27;101431.34;6245444;23;20004;-51
2022/06/27 04:16:22;;;;;;;1.92;0.40;;;;;;;24.66;35.69;101420.97;6245772;23;20008;-49
2022/06/27 04:18:50;;;;;;;1.55;0.43;;;;;;;24.64;35.98;101424.44;6245334;23;20011;-52
2022/06/27 04:21:19;;;;;;;1.63;0.45;;;;;;;24.64;36.14;101425.34;6245501;23;20000;-44
2022/06/27 04:23:47;;;;;;;2.03;0.57;;;;;;;24.65;35.69;101432.38;6245721;23;20308;-53
2022/06/27 04:26:16;;;;;;;1.38;0.40;;;;;;;24.68;35.95;101428.91;6245657;23;20335;-45
2022/06/27 04:28:44;;;;;;;2.85;0.40;;;;;;;24.66;36.01;101428.84;6245407;23;20019;-43
2022/06/27 04:31:13;;;;;;;1.70;0.30;;;;;;;24.63;35.72;101420.97;6246081;23;20000;-46
2022/06/27 04:33:42;;;;;;;1.75;0.50;;;;;;;24.63;35.87;101431.44;6245311;23;20028;-43
2022/06/27 04:36:10;;;;;;;1.58;0.40;;;;;;;24.65;35.54;101429.75;6245143;23;20015;-49
2022/06/27 04:38:38;;;;;;;1.40;0.40;;;;;;;24.63;36.17;101425.31;6245503;23;19996;-49
2022/06/27 04:41:07;;;;;;;3.33;0.50;;;;;;;24.65;35.54;101431.47;6245325;23;20023;-44
2022/06/27 04:43:35;;;;;;;1.08;0.70;;;;;;;24.64;35.64;101435.84;6245388;23;20380;-47
2022/06/27 04:46:05;;;;;;;1.80;0.70;;;;;;;24.59;36.03;101440.09;6245316;23;20011;-45
2022/06/27 04:48:34;;;;;;;1.65;0.38;;;;;;;24.74;35.51;101442.13;6246377;23;20024;-54
2022/06/27 04:51:03;;;;;;;1.40;0.68;;;;;;;24.71;35.49;101442.97;6247372;23;20011;-46
2022/06/27 04:53:32;;;;;;;2.10;0.60;;;;;;;24.52;35.91;101423.38;6220484;23;20008;-51
2022/06/27 04:56:01;;;;;;;0.50;0.32;;;;;;;24.67;35.55;101451.59;6247021;23;20459;-52
2022/06/27 04:58:29;;;;;;;3.17;0.40;;;;;;;24.65;35.94;101457.69;6247483;23;20004;-44
2022/06/27 05:00:58;;;;;;;1.85;0.40;;;;;;;24.64;35.55;101455.94;6247597;23;20000;-45
2022/06/27 05:03:27;;;;;;;1.00;0.35;;;;;;;24.54;36.01;101445.28;6246867;23;20066;-47
2022/06/27 05:05:56;;;;;;;1.20;0.20;;;;;;;24.44;35.94;101464.31;6220839;23;20008;-43
2022/06/27 05:08:24;;;;;;;2.03;0.70;;;;;;;24.52;36.09;101451.34;6247338;23;20331;-50
2022/06/27 05:10:53;;;;;;;2.55;0.47;;;;;;;24.58;36.16;101457.56;6247104;23;20008;-49
2022/06/27 05:13:20;;;;;;;3.85;1.08;;;;;;;24.56;36.14;101461.94;6246897;23;20000;-46
2022/06/27 05:15:48;;;;;;;1.58;0.52;;;;;;;24.44;36.41;101453.81;6247587;23;20427;-48
2022/06/27 05:18:16;;;;;;;2.60;0.40;;;;;;;24.54;36.20;101454.88;6247208;23;20004;-42
2022/06/27 05:20:45;;;;;;;5.82;0.70;;;;;;;24.65;35.99;101457.69;6247137;23;20019;-47
2022/06/27 05:23:13;;;;;;;1.13;0.47;;;;;;;24.70;35.92;101461.31;6246689;23;20008;-53
2022/06/27 05:25:41;;;;;;;0.93;0.30;;;;;;;24.75;35.92;101466.66;6245622;23;20004;-44
2022/06/27 05:28:10;;;;;;;11.65;0.95;;;;;;;24.76;36.04;101458.78;6219718;23;20410;-45
2022/06/27 05:30:38;;;;;;;1.42;0.50;;;;;;;24.71;35.65;101463.97;6246972;23;20081;-50
2022/06/27 05:33:07;;;;;;;1.50;0.60;;;;;;;24.71;36.16;101471.84;6246704;23;20004;-49
2022/06/27 05:35:36;;;;;;;1.30;0.47;;;;;;;24.79;35.98;101473.72;6247113;23;20010;-53
2022/06/27 05:38:04;;;;;;;2.47;0.60;;;;;;;24.80;35.92;101463.25;6246990;23;20012;-54
2022/06/27 05:40:33;;;;;;;2.97;0.80;;;;;;;24.94;35.82;101476.63;6246897;23;20011;-44
2022/06/27 05:43:03;;;;;;;2.15;0.70;;;;;;;24.97;35.74;101479.28;6246790;23;20428;-42
2022/06/27 05:45:31;;;;;;;2.25;0.47;;;;;;;24.95;35.64;101478.38;6246843;23;20373;-43
2022/06/27 05:48:03;;;;;;;4.75;0.57;;;;;;;25.01;35.54;101478.47;6246326;23;20126;-43
2022/06/27 05:50:32;;;;;;;2.92;0.60;;;;;;;24.99;35.76;101485.44;6246750;23;20004;-44
2022/06/27 05:53:01;;;;;;;1.17;0.50;;;;;;;25.02;35.52;101487.25;6246659;23;20018;-44
2022/06/27 05:55:31;;;;;;;3.33;0.65;;;;;;;25.00;35.83;101489.81;6246722;23;20012;-42
2022/06/27 05:58:00;;;;;;;4.72;0.90;;;;;;;25.03;35.75;101494.25;6220025;23;20062;-49
2022/06/27 06:00:29;;;;;;;3.95;0.80;;;;;;;25.05;35.61;101495.16;6245779;23;20007;-43
2022/06/27 06:02:58;;;;;;;2.90;0.60;;;;;;;25.06;35.90;101490.78;6246470;23;20012;-46
2022/06/27 06:05:25;;;;;;;5.63;0.60;;;;;;;25.12;35.52;101504.03;6246847;23;20012;-51
2022/06/27 06:07:54;;;;;;;3.65;0.73;;;;;;;25.12;35.88;101499.66;6246729;23;20000;-53
2022/06/27 06:10:22;;;;;;;5.55;1.30;;;;;;;25.16;35.94;101500.56;6246607;23;20008;-45
2022/06/27 06:12:51;;;;;;;2.28;1.00;;;;;;;25.23;35.89;101510.34;6246599;23;20087;-51
2022/06/27 06:15:19;;;;;;;3.45;0.60;;;;;;;25.29;35.92;101517.41;6246476;23;20008;-43
2022/06/27 06:17:48;;;;;;;5.88;0.60;;;;;;;25.27;36.30;101520.03;6246212;23;20000;-51
2022/06/27 06:20:17;;;;;;;1.70;0.80;;;;;;;25.22;36.13;101526.94;6246809;23;20001;-45
2022/06/27 06:22:46;;;;;;;7.28;0.88;;;;;;;25.30;36.21;101524.44;6245940;23;20139;-44
2022/06/27 06:25:14;;;;;;;1.55;0.50;;;;;;;25.32;36.01;101518.34;6246037;23;20010;-53
2022/06/27 06:27:44;;;;;;;3.83;0.45;;;;;;;25.34;35.86;101528.91;6220079;23;20436;-43
2022/06/27 06:30:15;;;;;;;1.90;0.82;;;;;;;25.35;36.10;101520.16;6246649;23;20335;-45
2022/06/27 06:32:44;;;;;;;3.00;0.60;;;;;;;25.40;36.35;101528.09;6246333;23;20012;-49
2022/06/27 06:35:12;;;;;;;3.95;0.70;;;;;;;25.44;36.29;101529.97;6246658;23;20000;-52
2022/06/27 06:37:42;;;;;;;5.13;1.10;;;;;;;25.43;36.19;101529.06;6246438;23;20063;-42
2022/06/27 06:40:12;;;;;;;7.47;0.88;;;;;;;25.50;35.93;101537.03;6246228;23;20011;-50
2022/06/27 06:42:40;;;;;;;4.25;1.08;;;;;;;25.45;35.75;101534.34;6246319;23;20438;-45
2022/06/27 06:45:08;;;;;;;4.13;0.80;;;;;;;25.53;35.98;101544.97;6246356;23;20004;-43
2022/06/27 06:47:44;;;;;;;3.58;0.90;;;;;;;25.53;36.26;101547.59;6246086;23;20000;-47
2022/06/27 06:50:18;;;;;;;2.38;0.90;;;;;;;25.56;36.11;101556.41;6246091;23;20000;-46
2022/06/27 06:52:49;;;;;;;1.48;0.73;;;;;;;25.58;36.21;101553.78;6245816;23;20008;-45
2022/06/27 06:55:17;;;;;;;5.65;1.00;;;;;;;25.68;36.29;101557.44;6245822;23;20321;-46
2022/06/27 06:57:46;;;;;;;3.50;0.50;;;;;;;25.71;36.34;101557.50;6246402;23;20071;-48
2022/06/27 07:00:15;;;;;;;3.97;1.00;;;;;;;25.68;36.46;101552.19;6246146;23;20004;-44
2022/06/27 07:02:43;;;;;;;2.50;0.68;;;;;;;25.74;36.44;101565.44;6246058;23;20074;-44
2022/06/27 07:05:12;;;;;;;2.65;0.77;;;;;;;25.81;36.10;101563.78;6219187;23;20004;-44
2022/06/27 07:07:42;;;;;;;3.78;1.05;;;;;;;25.74;36.19;101561.06;6219507;23;20000;-42
2022/06/27 07:10:11;;;;;;;2.13;0.70;;;;;;;25.75;36.67;101570.72;6245510;23;20011;-44
2022/06/27 07:12:40;;;;;;;2.35;0.77;;;;;;;25.73;36.86;101564.53;6246022;23;20004;-44
2022/06/27 07:15:10;;;;;;;3.03;1.23;;;;;;;25.79;36.56;101577.78;6246122;23;20004;-43
2022/06/27 07:17:49;;;;;;;3.33;0.93;;;;;;;25.83;36.68;101589.22;6245810;23;20031;-43
2022/06/27 07:20:19;;;;;;;2.85;0.93;;;;;;;25.88;36.59;101581.44;6246324;23;20075;-44
2022/06/27 07:22:49;;;;;;;4.78;0.75;;;;;;;25.94;36.47;101585.03;6244531;23;20004;-43
2022/06/27 07:25:18;;;;;;;2.90;0.80;;;;;;;25.91;36.65;101590.22;6245806;23;20001;-44
2022/06/27 07:27:47;;;;;;;3.53;0.70;;;;;;;25.96;36.40;101598.19;6246199;23;20068;-44
2022/06/27 07:30:16;;;;;;;1.58;0.50;;;;;;;26.05;36.37;101605.31;6245790;23;20016;-43
2022/06/27 07:32:45;;;;;;;3.67;0.95;;;;;;;26.01;36.49;101601.75;6246066;23;20039;-44
2022/06/27 07:35:16;;;;;;;4.55;0.60;;;;;;;26.01;36.28;101606.13;6246087;23;20075;-44
2022/06/27 07:37:51;;;;;;;4.32;0.80;;;;;;;25.85;36.34;101584.88;6245809;23;20007;-42
2022/06/27 07:40:22;;;;;;;1.92;0.65;;;;;;;26.07;36.33;101617.59;6246028;23;20460;-44
2022/06/27 07:42:52;;;;;;;2.30;0.77;;;;;;;26.07;36.55;101624.63;6245085;23;20008;-45
2022/06/27 07:45:23;;;;;;;3.58;0.70;;;;;;;26.03;36.41;101622.81;6219066;23;20011;-47
2022/06/27 07:47:51;;;;;;;2.38;0.60;;;;;;;26.05;36.52;101628.97;6244207;23;20378;-52
2022/06/27 07:50:36;;;;;;;4.65;0.90;;;;;;;26.07;36.49;101629.88;6245832;23;20000;-47
2022/06/27 07:53:16;;;;;;;4.25;1.17;;;;;;;26.04;36.50;101627.22;6222880;23;20064;-53
2022/06/27 07:55:51;;;;;;;5.22;0.80;;;;;;;26.06;36.57;101628.13;6221153;23;20012;-47
2022/06/27 07:58:26;;;;;;;2.40;0.77;;;;;;;26.00;36.56;101625.38;6218996;23;20456;-48
2022/06/27 08:00:54;;;;;;;6.10;0.95;;;;;;;26.04;36.56;101641.25;6245867;23;20007;-43
2022/06/27 08:04:04;;;;;;;2.30;0.70;;;;;;;26.00;36.62;101639.44;6219084;23;20019;-45
2022/06/27 08:06:10;;;;;;;3.38;0.75;;;;;;;26.09;36.56;101651.84;6240587;23;20000;-43
2022/06/27 08:08:41;;;;;;;2.15;0.55;;;;;;;26.09;36.40;101644.81;6219488;23;20005;-51
2022/06/27 08:11:12;;;;;;;4.15;0.90;;;;;;;26.16;36.47;101653.69;6246184;23;20059;-44
2022/06/27 08:13:41;;;;;;;4.53;0.90;;;;;;;26.17;36.55;101657.22;6245604;23;20012;-46
2022/06/27 08:16:14;;;;;;;3.47;0.70;;;;;;;26.19;36.65;101650.25;6245206;23;20004;-46
2022/06/27 08:18:44;;;;;;;3.25;0.77;;;;;;;26.21;36.53;101657.28;6245741;23;20095;-46
2022/06/27 08:21:13;;;;;;;3.45;0.90;;;;;;;26.25;36.43;101655.59;6245582;23;20354;-54
2022/06/27 08:23:41;;;;;;;2.20;0.60;;;;;;;26.27;36.51;101653.00;6219659;23;20019;-53
2022/06/27 08:26:12;;;;;;;2.60;0.65;;;;;;;26.25;36.59;101655.59;6247496;23;20127;-48
2022/06/27 08:28:42;;;;;;;2.58;0.70;;;;;;;26.28;36.53;101660.91;6248009;23;19996;-50
2022/06/27 08:31:12;;;;;;;3.40;0.60;;;;;;;26.31;36.34;101663.56;6220905;23;20427;-44
2022/06/27 08:33:43;;;;;;;3.08;0.60;;;;;;;26.34;36.45;101667.97;6247745;23;20447;-45
2022/06/27 08:36:12;;;;;;;2.53;0.98;;;;;;;26.32;36.36;101667.97;6247419;23;20015;-46
2022/06/27 08:38:42;;;;;;;1.60;0.60;;;;;;;26.34;36.51;101674.16;6247548;23;20071;-44
2022/06/27 08:41:14;;;;;;;1.30;0.50;;;;;;;26.31;36.44;101668.84;6247824;23;20382;-44
2022/06/27 08:43:42;;;;;;;2.90;0.70;;;;;;;26.37;36.38;101674.19;6220970;23;20335;-46
2022/06/27 08:46:15;;;;;;;1.35;0.60;;;;;;;26.31;36.42;101671.47;6247480;23;20011;-50
2022/06/27 08:48:45;;;;;;;2.25;0.85;;;;;;;26.33;36.48;101669.75;6247648;23;20015;-43
2022/06/27 08:51:14;;;;;;;5.07;0.70;;;;;;;26.36;36.39;101674.16;6247174;23;20023;-47
2022/06/27 08:53:43;;;;;;;2.15;0.90;;;;;;;26.36;36.44;101671.53;6221089;23;20094;-45
2022/06/27 08:56:13;;;;;;;2.28;0.60;;;;;;;26.37;36.70;101670.66;6245769;23;20016;-51
2022/06/27 08:58:46;;;;;;;1.70;0.60;;;;;;;26.41;36.41;101679.47;6248017;23;20395;-46
2022/06/27 09:01:19;;;;;;;2.13;0.50;;;;;;;26.33;36.44;101671.47;6247087;23;20058;-47
2022/06/27 09:04:03;;;;;;;3.65;0.90;;;;;;;26.35;36.69;101680.28;6247068;23;20016;-47
2022/06/27 09:06:55;;;;;;;5.15;1.05;;;;;;;26.37;36.79;101687.34;6246940;23;20317;-46
2022/06/27 09:09:24;;;;;;;1.80;0.70;;;;;;;26.39;36.58;101680.34;6242522;23;20085;-44
2022/06/27 09:11:54;;;;;;;3.38;0.65;;;;;;;26.23;36.46;101654.69;6246104;23;20012;-50
2022/06/27 09:14:33;;;;;;;1.50;0.55;;;;;;;26.37;36.59;101679.47;6220273;23;20453;-48
2022/06/27 09:17:04;;;;;;;2.30;1.02;;;;;;;26.49;36.51;101683.97;6247492;23;20000;-46
2022/06/27 09:19:52;;;;;;;2.92;0.60;;;;;;;26.51;36.53;101689.28;6246594;23;20064;-48
2022/06/27 09:22:23;;;;;;;3.65;0.88;;;;;;;26.51;36.38;101687.53;6238642;23;20004;-43
2022/06/27 09:25:13;;;;;;;3.10;0.98;;;;;;;26.50;36.51;101685.75;6245451;23;19999;-44
2022/06/27 09:27:47;;;;;;;3.92;0.50;;;;;;;26.53;36.44;101696.31;6246485;23;20317;-48
2022/06/27 09:30:26;;;;;;;2.03;0.70;;;;;;;26.59;36.45;101699.91;6245246;23;20394;-44
2022/06/27 09:32:58;;;;;;;4.68;0.70;;;;;;;26.61;36.55;101706.09;6247171;23;20004;-45
2022/06/27 09:35:26;;;;;;;2.28;0.73;;;;;;;26.57;36.64;101704.25;6246488;23;20382;-44
2022/06/27 09:37:57;;;;;;;1.77;0.63;;;;;;;26.65;36.20;101707.88;6246665;23;20004;-47
2022/06/27 09:40:27;;;;;;;3.17;0.82;;;;;;;26.65;36.17;101719.28;6246807;23;20419;-46
2022/06/27 09:42:57;;;;;;;2.67;0.65;;;;;;;26.63;36.09;101720.16;6219928;23;20038;-47
2022/06/27 09:45:27;;;;;;;1.33;0.45;;;;;;;26.65;36.12;101724.56;6246803;23;20004;-45
2022/06/27 09:47:59;;;;;;;1.95;0.47;;;;;;;26.66;36.27;101722.78;6246785;23;20004;-43
2022/06/27 09:50:30;;;;;;;4.22;0.88;;;;;;;26.66;36.09;101723.69;6246740;23;20004;-44
2022/06/27 09:52:58;;;;;;;1.55;0.40;;;;;;;26.63;36.30;101717.53;6246585;23;20004;-51
2022/06/27 09:55:27;;;;;;;1.52;0.77;;;;;;;26.64;36.45;101720.16;6246207;23;20091;-44
2022/06/27 09:57:56;;;;;;;2.35;0.40;;;;;;;26.62;36.20;101727.13;6246521;23;20374;-51
2022/06/27 10:00:25;;;;;;;3.38;0.90;;;;;;;26.61;36.28;101714.84;6246780;23;20007;-45
2022/06/27 10:02:54;;;;;;;1.30;0.60;;;;;;;26.59;36.47;101729.72;6247194;23;20008;-43
2022/06/27 10:05:23;;;;;;;2.55;0.40;;;;;;;26.61;36.38;101714.84;6245989;23;20458;-51
2022/06/27 10:07:59;;;;;;;2.72;0.93;;;;;;;26.61;36.35;101727.13;6246320;23;20012;-45
2022/06/27 10:10:30;;;;;;;2.95;0.57;;;;;;;26.57;36.19;101718.28;6220253;23;20004;-48
2022/06/27 10:13:01;;;;;;;1.25;0.50;;;;;;;26.61;36.50;101728.00;6246326;23;20011;-46
2022/06/27 10:15:31;;;;;;;1.52;0.60;;;;;;;26.60;36.29;101718.34;6219888;23;20451;-45
2022/06/27 10:18:02;;;;;;;1.58;0.40;;;;;;;26.61;36.29;101714.84;6246858;23;20000;-45
2022/06/27 10:20:37;;;;;;;1.55;0.50;;;;;;;26.62;36.28;101721.00;6246988;23;20004;-44
2022/06/27 10:23:05;;;;;;;1.08;0.40;;;;;;;26.68;36.34;101723.69;6245700;23;20069;-46
2022/06/27 10:25:34;;;;;;;1.20;0.40;;;;;;;26.71;36.38;101715.00;6246133;23;20083;-49
2022/06/27 10:28:12;;;;;;;2.25;0.40;;;;;;;26.68;36.44;101716.72;6246694;23;20407;-44
2022/06/27 10:30:46;;;;;;;1.77;0.35;;;;;;;26.73;36.21;101729.03;6246359;23;20000;-44
2022/06/27 10:33:34;;;;;;;1.42;0.40;;;;;;;26.75;36.20;101729.94;6245634;23;20007;-51
2022/06/27 10:36:24;;;;;;;1.35;0.50;;;;;;;26.74;36.24;101736.97;6245808;23;20008;-44
2022/06/27 10:38:56;;;;;;;1.88;0.40;;;;;;;26.76;36.31;101739.59;6246292;23;19996;-49
2022/06/27 10:41:25;;;;;;;1.05;0.30;;;;;;;26.81;36.07;101744.09;6219094;23;20054;-44
2022/06/27 10:43:56;;;;;;;1.58;0.40;;;;;;;26.83;36.08;101741.50;6246021;23;20015;-45
2022/06/27 10:46:25;;;;;;;1.95;0.57;;;;;;;26.87;35.92;101732.78;6245978;23;20041;-45
2022/06/27 10:48:55;;;;;;;5.25;0.63;;;;;;;26.85;35.75;101731.88;6219191;23;20004;-44
2022/06/27 10:51:29;;;;;;;1.75;0.75;;;;;;;26.87;36.16;101737.16;6245755;23;20055;-44
2022/06/27 10:54:00;;;;;;;2.25;0.60;;;;;;;26.93;36.03;101735.47;6246295;23;20101;-44
2022/06/27 10:56:29;;;;;;;2.63;0.40;;;;;;;26.94;36.04;101746.91;6245956;23;20078;-43
2022/06/27 10:58:59;;;;;;;0.90;0.45;;;;;;;26.95;36.08;101740.78;6246039;23;20059;-43
2022/06/27 11:01:28;;;;;;;3.75;0.68;;;;;;;26.94;36.23;101739.00;6246471;23;20436;-46
2022/06/27 11:03:57;;;;;;;2.17;0.93;;;;;;;26.94;36.10;101747.78;6246006;23;20011;-46
2022/06/27 11:06:25;;;;;;;1.48;0.50;;;;;;;26.95;35.99;101746.03;6219665;23;20073;-45
2022/06/27 11:08:55;;;;;;;1.08;0.43;;;;;;;26.97;36.06;101750.44;6219342;23;20382;-46
2022/06/27 11:11:26;;;;;;;3.03;0.57;;;;;;;26.98;36.29;101751.31;6245672;23;20335;-43
2022/06/27 11:13:56;;;;;;;2.13;0.45;;;;;;;26.97;36.25;101752.22;6245968;23;20054;-46
2022/06/27 11:16:29;;;;;;;1.90;0.40;;;;;;;27.02;36.08;101757.53;6219149;23;20004;-44
2022/06/27 11:19:04;;;;;;;2.13;0.65;;;;;;;27.04;36.22;101759.31;6245698;23;20071;-46
2022/06/27 11:21:37;;;;;;;1.15;0.50;;;;;;;27.04;36.20;101768.97;6244560;23;20495;-45
2022/06/27 11:24:09;;;;;;;4.57;0.55;;;;;;;27.03;36.16;101762.81;6246147;23;20008;-44
2022/06/27 11:26:48;;;;;;;1.08;0.32;;;;;;;27.09;35.92;101767.25;6219122;23;20062;-51
2022/06/27 11:32:12;;;;;;;3.28;0.98;;;;;;;27.05;35.84;101752.31;6231329;23;20004;-46
2022/06/27 11:34:48;;;;;;;1.48;0.40;;;;;;;27.12;36.29;101770.84;6244259;23;20004;-45
2022/06/27 11:37:23;;;;;;;2.47;0.73;;;;;;;27.11;36.04;101768.16;6245175;23;20001;-50
2022/06/27 11:40:04;;;;;;;0.60;0.20;;;;;;;27.12;36.13;101762.03;6244943;23;20038;-44
2022/06/27 11:42:34;;;;;;;1.42;0.50;;;;;;;27.16;35.90;101769.13;6246211;23;20011;-44
2022/06/27 11:45:21;;;;;;;2.42;0.60;;;;;;;27.13;36.07;101774.34;6245643;23;20000;-46